sensor_id;sensor_type;location;lat;lon;timestamp;P1;durP1;ratioP1;P2;durP2;ratioP2
3587;SDS011;1808;53.596;9.972;2023-04-24T00:00:32;13.45;;;9.73;;
3587;SDS011;1808;53.596;9.972;2023-04-24T00:02:58;15.85;;;9.30;;
3587;SDS011;1808;53.596;9.972;2023-04-24T00:05:24;14.95;;;9.65;;
3587;SDS011;1808;53.596;9.972;2023-04-24T00:07:50;13.93;;;9.45;;
3587;SDS011;1808;53.596;9.972;2023-04-24T00:10:17;13.77;;;10.02;;
3587;SDS011;1808;53.596;9.972;2023-04-24T00:12:44;12.82;;;9.23;;
3587;SDS011;1808;53.596;9.972;2023-04-24T00:15:10;13.40;;;9.68;;
3587;SDS011;1808;53.596;9.972;2023-04-24T00:17:38;14.70;;;10.18;;
3587;SDS011;1808;53.596;9.972;2023-04-24T00:20:04;14.38;;;9.93;;
3587;SDS011;1808;53.596;9.972;2023-04-24T00:22:32;12.45;;;8.80;;
3587;SDS011;1808;53.596;9.972;2023-04-24T00:24:58;14.38;;;10.20;;
3587;SDS011;1808;53.596;9.972;2023-04-24T00:27:25;15.13;;;9.82;;
3587;SDS011;1808;53.596;9.972;2023-04-24T00:29:51;11.85;;;9.60;;
3587;SDS011;1808;53.596;9.972;2023-04-24T00:32:17;12.93;;;9.75;;
3587;SDS011;1808;53.596;9.972;2023-04-24T00:34:44;13.35;;;8.98;;
3587;SDS011;1808;53.596;9.972;2023-04-24T00:37:11;13.07;;;9.57;;
3587;SDS011;1808;53.596;9.972;2023-04-24T00:39:37;15.95;;;9.98;;
3587;SDS011;1808;53.596;9.972;2023-04-24T00:42:04;12.80;;;9.35;;
3587;SDS011;1808;53.596;9.972;2023-04-24T00:44:31;15.25;;;9.48;;
3587;SDS011;1808;53.596;9.972;2023-04-24T00:46:57;12.85;;;8.55;;
3587;SDS011;1808;53.596;9.972;2023-04-24T00:49:25;17.15;;;9.02;;
3587;SDS011;1808;53.596;9.972;2023-04-24T00:51:53;15.13;;;9.55;;
3587;SDS011;1808;53.596;9.972;2023-04-24T00:54:19;13.35;;;9.85;;
3587;SDS011;1808;53.596;9.972;2023-04-24T00:56:45;13.50;;;9.48;;
3587;SDS011;1808;53.596;9.972;2023-04-24T00:59:12;14.65;;;9.95;;
3587;SDS011;1808;53.596;9.972;2023-04-24T01:01:38;12.20;;;9.43;;
3587;SDS011;1808;53.596;9.972;2023-04-24T01:04:06;14.68;;;9.65;;
3587;SDS011;1808;53.596;9.972;2023-04-24T01:06:33;14.45;;;9.82;;
3587;SDS011;1808;53.596;9.972;2023-04-24T01:09:01;12.85;;;9.23;;
3587;SDS011;1808;53.596;9.972;2023-04-24T01:11:27;12.95;;;9.52;;
3587;SDS011;1808;53.596;9.972;2023-04-24T01:13:54;13.27;;;9.68;;
3587;SDS011;1808;53.596;9.972;2023-04-24T01:16:21;12.35;;;9.05;;
3587;SDS011;1808;53.596;9.972;2023-04-24T01:18:47;14.40;;;9.18;;
3587;SDS011;1808;53.596;9.972;2023-04-24T01:21:14;15.20;;;9.73;;
3587;SDS011;1808;53.596;9.972;2023-04-24T01:23:42;12.32;;;9.05;;
3587;SDS011;1808;53.596;9.972;2023-04-24T01:26:08;9.55;;;7.40;;
3587;SDS011;1808;53.596;9.972;2023-04-24T01:28:35;11.25;;;7.63;;
3587;SDS011;1808;53.596;9.972;2023-04-24T01:31:01;13.93;;;8.30;;
3587;SDS011;1808;53.596;9.972;2023-04-24T01:33:27;12.13;;;8.23;;
3587;SDS011;1808;53.596;9.972;2023-04-24T01:35:54;11.20;;;7.50;;
3587;SDS011;1808;53.596;9.972;2023-04-24T01:38:20;13.00;;;8.75;;
3587;SDS011;1808;53.596;9.972;2023-04-24T01:40:47;10.05;;;7.03;;
3587;SDS011;1808;53.596;9.972;2023-04-24T01:43:15;10.70;;;6.72;;
3587;SDS011;1808;53.596;9.972;2023-04-24T01:45:41;8.45;;;6.90;;
3587;SDS011;1808;53.596;9.972;2023-04-24T01:48:07;9.60;;;6.55;;
3587;SDS011;1808;53.596;9.972;2023-04-24T01:50:33;8.52;;;7.07;;
3587;SDS011;1808;53.596;9.972;2023-04-24T01:53:00;8.63;;;6.15;;
3587;SDS011;1808;53.596;9.972;2023-04-24T01:55:26;9.70;;;6.90;;
3587;SDS011;1808;53.596;9.972;2023-04-24T01:57:54;8.43;;;6.50;;
3587;SDS011;1808;53.596;9.972;2023-04-24T02:00:21;9.73;;;7.28;;
3587;SDS011;1808;53.596;9.972;2023-04-24T02:02:47;7.75;;;6.07;;
3587;SDS011;1808;53.596;9.972;2023-04-24T02:05:13;7.93;;;5.85;;
3587;SDS011;1808;53.596;9.972;2023-04-24T02:07:40;12.20;;;4.97;;
3587;SDS011;1808;53.596;9.972;2023-04-24T02:10:06;7.60;;;4.70;;
3587;SDS011;1808;53.596;9.972;2023-04-24T02:12:32;7.55;;;4.65;;
3587;SDS011;1808;53.596;9.972;2023-04-24T02:15:00;6.03;;;4.60;;
3587;SDS011;1808;53.596;9.972;2023-04-24T02:17:26;6.38;;;3.47;;
3587;SDS011;1808;53.596;9.972;2023-04-24T02:19:52;5.47;;;3.83;;
3587;SDS011;1808;53.596;9.972;2023-04-24T02:22:19;9.55;;;3.97;;
3587;SDS011;1808;53.596;9.972;2023-04-24T02:24:45;4.45;;;3.42;;
3587;SDS011;1808;53.596;9.972;2023-04-24T02:27:11;4.07;;;3.10;;
3587;SDS011;1808;53.596;9.972;2023-04-24T02:29:37;4.70;;;3.08;;
3587;SDS011;1808;53.596;9.972;2023-04-24T02:32:05;4.93;;;3.42;;
3587;SDS011;1808;53.596;9.972;2023-04-24T02:34:31;4.47;;;2.97;;
3587;SDS011;1808;53.596;9.972;2023-04-24T02:36:57;4.32;;;2.83;;
3587;SDS011;1808;53.596;9.972;2023-04-24T02:39:24;4.72;;;3.30;;
3587;SDS011;1808;53.596;9.972;2023-04-24T02:41:50;7.25;;;3.53;;
3587;SDS011;1808;53.596;9.972;2023-04-24T02:44:16;6.68;;;3.90;;
3587;SDS011;1808;53.596;9.972;2023-04-24T02:46:43;5.40;;;4.07;;
3587;SDS011;1808;53.596;9.972;2023-04-24T02:49:10;4.95;;;3.53;;
3587;SDS011;1808;53.596;9.972;2023-04-24T02:51:37;6.35;;;4.28;;
3587;SDS011;1808;53.596;9.972;2023-04-24T02:54:05;6.53;;;4.63;;
3587;SDS011;1808;53.596;9.972;2023-04-24T02:56:32;7.78;;;4.32;;
3587;SDS011;1808;53.596;9.972;2023-04-24T02:58:58;7.82;;;4.03;;
3587;SDS011;1808;53.596;9.972;2023-04-24T03:01:24;5.82;;;4.38;;
3587;SDS011;1808;53.596;9.972;2023-04-24T03:03:50;5.85;;;3.67;;
3587;SDS011;1808;53.596;9.972;2023-04-24T03:06:18;7.18;;;4.75;;
3587;SDS011;1808;53.596;9.972;2023-04-24T03:08:45;5.65;;;3.90;;
3587;SDS011;1808;53.596;9.972;2023-04-24T03:11:12;6.10;;;3.88;;
3587;SDS011;1808;53.596;9.972;2023-04-24T03:13:38;6.63;;;3.70;;
3587;SDS011;1808;53.596;9.972;2023-04-24T03:16:04;7.38;;;4.13;;
3587;SDS011;1808;53.596;9.972;2023-04-24T03:18:30;6.07;;;3.47;;
3587;SDS011;1808;53.596;9.972;2023-04-24T03:20:57;5.10;;;3.40;;
3587;SDS011;1808;53.596;9.972;2023-04-24T03:23:25;8.75;;;3.72;;
3587;SDS011;1808;53.596;9.972;2023-04-24T03:25:51;4.45;;;3.35;;
3587;SDS011;1808;53.596;9.972;2023-04-24T03:28:17;5.35;;;3.67;;
3587;SDS011;1808;53.596;9.972;2023-04-24T03:30:44;6.05;;;3.78;;
3587;SDS011;1808;53.596;9.972;2023-04-24T03:33:10;6.10;;;3.28;;
3587;SDS011;1808;53.596;9.972;2023-04-24T03:35:36;5.13;;;3.53;;
3587;SDS011;1808;53.596;9.972;2023-04-24T03:38:03;5.45;;;3.72;;
3587;SDS011;1808;53.596;9.972;2023-04-24T03:40:31;4.18;;;2.83;;
3587;SDS011;1808;53.596;9.972;2023-04-24T03:42:58;4.10;;;2.33;;
3587;SDS011;1808;53.596;9.972;2023-04-24T03:45:24;5.38;;;3.38;;
3587;SDS011;1808;53.596;9.972;2023-04-24T03:47:51;6.22;;;3.83;;
3587;SDS011;1808;53.596;9.972;2023-04-24T03:50:17;5.35;;;3.25;;
3587;SDS011;1808;53.596;9.972;2023-04-24T03:52:43;5.18;;;3.20;;
3587;SDS011;1808;53.596;9.972;2023-04-24T03:55:09;5.75;;;3.00;;
3587;SDS011;1808;53.596;9.972;2023-04-24T03:57:39;4.68;;;3.00;;
3587;SDS011;1808;53.596;9.972;2023-04-24T04:00:06;4.60;;;3.05;;
3587;SDS011;1808;53.596;9.972;2023-04-24T04:02:33;5.80;;;3.00;;
3587;SDS011;1808;53.596;9.972;2023-04-24T04:05:00;10.77;;;2.97;;
3587;SDS011;1808;53.596;9.972;2023-04-24T04:07:27;4.57;;;2.80;;
3587;SDS011;1808;53.596;9.972;2023-04-24T04:09:54;4.10;;;2.80;;
3587;SDS011;1808;53.596;9.972;2023-04-24T04:12:20;4.28;;;2.85;;
3587;SDS011;1808;53.596;9.972;2023-04-24T04:14:48;5.03;;;2.55;;
3587;SDS011;1808;53.596;9.972;2023-04-24T04:17:14;9.48;;;2.78;;
3587;SDS011;1808;53.596;9.972;2023-04-24T04:19:41;4.10;;;2.15;;
3587;SDS011;1808;53.596;9.972;2023-04-24T04:22:07;4.25;;;2.53;;
3587;SDS011;1808;53.596;9.972;2023-04-24T04:24:34;3.80;;;2.20;;
3587;SDS011;1808;53.596;9.972;2023-04-24T04:27:05;4.47;;;2.40;;
3587;SDS011;1808;53.596;9.972;2023-04-24T04:29:31;4.32;;;2.35;;
3587;SDS011;1808;53.596;9.972;2023-04-24T04:31:59;4.18;;;2.38;;
3587;SDS011;1808;53.596;9.972;2023-04-24T04:34:26;3.75;;;2.42;;
3587;SDS011;1808;53.596;9.972;2023-04-24T04:36:52;5.32;;;2.70;;
3587;SDS011;1808;53.596;9.972;2023-04-24T04:39:18;4.00;;;2.50;;
3587;SDS011;1808;53.596;9.972;2023-04-24T04:41:44;6.93;;;2.17;;
3587;SDS011;1808;53.596;9.972;2023-04-24T04:44:13;4.25;;;2.75;;
3587;SDS011;1808;53.596;9.972;2023-04-24T04:46:40;3.65;;;2.30;;
3587;SDS011;1808;53.596;9.972;2023-04-24T04:49:08;4.28;;;1.90;;
3587;SDS011;1808;53.596;9.972;2023-04-24T04:51:35;3.22;;;2.15;;
3587;SDS011;1808;53.596;9.972;2023-04-24T04:54:02;4.55;;;2.60;;
3587;SDS011;1808;53.596;9.972;2023-04-24T04:56:28;4.10;;;2.50;;
3587;SDS011;1808;53.596;9.972;2023-04-24T04:58:54;4.45;;;2.33;;
3587;SDS011;1808;53.596;9.972;2023-04-24T05:01:21;3.90;;;2.35;;
3587;SDS011;1808;53.596;9.972;2023-04-24T05:03:48;6.60;;;2.70;;
3587;SDS011;1808;53.596;9.972;2023-04-24T05:06:15;3.42;;;2.22;;
3587;SDS011;1808;53.596;9.972;2023-04-24T05:08:42;3.05;;;2.05;;
3587;SDS011;1808;53.596;9.972;2023-04-24T05:11:08;5.18;;;2.10;;
3587;SDS011;1808;53.596;9.972;2023-04-24T05:13:34;4.03;;;2.25;;
3587;SDS011;1808;53.596;9.972;2023-04-24T05:16:00;4.68;;;1.98;;
3587;SDS011;1808;53.596;9.972;2023-04-24T05:18:26;4.55;;;2.22;;
3587;SDS011;1808;53.596;9.972;2023-04-24T05:20:53;3.67;;;2.60;;
3587;SDS011;1808;53.596;9.972;2023-04-24T05:23:20;5.30;;;2.83;;
3587;SDS011;1808;53.596;9.972;2023-04-24T05:25:46;4.90;;;2.42;;
3587;SDS011;1808;53.596;9.972;2023-04-24T05:28:13;3.90;;;2.20;;
3587;SDS011;1808;53.596;9.972;2023-04-24T05:30:40;3.30;;;2.30;;
3587;SDS011;1808;53.596;9.972;2023-04-24T05:33:06;4.32;;;2.53;;
3587;SDS011;1808;53.596;9.972;2023-04-24T05:35:33;5.95;;;2.50;;
3587;SDS011;1808;53.596;9.972;2023-04-24T05:37:59;4.65;;;2.50;;
3587;SDS011;1808;53.596;9.972;2023-04-24T05:40:27;3.90;;;2.13;;
3587;SDS011;1808;53.596;9.972;2023-04-24T05:42:53;3.88;;;2.22;;
3587;SDS011;1808;53.596;9.972;2023-04-24T05:45:19;3.95;;;2.30;;
3587;SDS011;1808;53.596;9.972;2023-04-24T05:47:46;3.55;;;2.38;;
3587;SDS011;1808;53.596;9.972;2023-04-24T05:50:12;4.35;;;2.35;;
3587;SDS011;1808;53.596;9.972;2023-04-24T05:52:38;4.95;;;2.35;;
3587;SDS011;1808;53.596;9.972;2023-04-24T05:55:04;4.13;;;2.17;;
3587;SDS011;1808;53.596;9.972;2023-04-24T05:57:32;4.97;;;2.72;;
3587;SDS011;1808;53.596;9.972;2023-04-24T05:59:58;4.00;;;2.40;;
3587;SDS011;1808;53.596;9.972;2023-04-24T06:02:24;4.50;;;2.20;;
3587;SDS011;1808;53.596;9.972;2023-04-24T06:04:52;3.42;;;1.98;;
3587;SDS011;1808;53.596;9.972;2023-04-24T06:07:18;4.15;;;2.30;;
3587;SDS011;1808;53.596;9.972;2023-04-24T06:09:45;5.60;;;2.88;;
3587;SDS011;1808;53.596;9.972;2023-04-24T06:12:12;5.72;;;2.17;;
3587;SDS011;1808;53.596;9.972;2023-04-24T06:14:39;4.57;;;2.30;;
3587;SDS011;1808;53.596;9.972;2023-04-24T06:17:05;3.17;;;2.05;;
3587;SDS011;1808;53.596;9.972;2023-04-24T06:19:32;4.85;;;2.38;;
3587;SDS011;1808;53.596;9.972;2023-04-24T06:21:58;5.65;;;3.00;;
3587;SDS011;1808;53.596;9.972;2023-04-24T06:24:26;5.55;;;3.10;;
3587;SDS011;1808;53.596;9.972;2023-04-24T06:26:53;6.10;;;2.40;;
3587;SDS011;1808;53.596;9.972;2023-04-24T06:29:19;7.57;;;2.90;;
3587;SDS011;1808;53.596;9.972;2023-04-24T06:31:47;4.15;;;2.30;;
3587;SDS011;1808;53.596;9.972;2023-04-24T06:34:13;4.93;;;2.55;;
3587;SDS011;1808;53.596;9.972;2023-04-24T06:36:39;5.10;;;2.70;;
3587;SDS011;1808;53.596;9.972;2023-04-24T06:39:05;6.57;;;3.00;;
3587;SDS011;1808;53.596;9.972;2023-04-24T06:41:31;5.78;;;2.47;;
3587;SDS011;1808;53.596;9.972;2023-04-24T06:43:58;5.68;;;3.03;;
3587;SDS011;1808;53.596;9.972;2023-04-24T06:46:24;5.45;;;2.70;;
3587;SDS011;1808;53.596;9.972;2023-04-24T06:48:52;6.22;;;3.80;;
3587;SDS011;1808;53.596;9.972;2023-04-24T06:51:20;9.65;;;4.38;;
3587;SDS011;1808;53.596;9.972;2023-04-24T06:53:46;4.93;;;2.92;;
3587;SDS011;1808;53.596;9.972;2023-04-24T06:56:12;7.50;;;2.60;;
3587;SDS011;1808;53.596;9.972;2023-04-24T06:58:39;4.82;;;2.58;;
3587;SDS011;1808;53.596;9.972;2023-04-24T07:01:05;4.80;;;2.85;;
3587;SDS011;1808;53.596;9.972;2023-04-24T07:03:31;4.82;;;3.20;;
3587;SDS011;1808;53.596;9.972;2023-04-24T07:05:59;3.83;;;2.60;;
3587;SDS011;1808;53.596;9.972;2023-04-24T07:08:25;4.25;;;2.80;;
3587;SDS011;1808;53.596;9.972;2023-04-24T07:10:51;5.93;;;3.10;;
3587;SDS011;1808;53.596;9.972;2023-04-24T07:13:17;4.60;;;3.10;;
3587;SDS011;1808;53.596;9.972;2023-04-24T07:15:43;5.85;;;3.22;;
3587;SDS011;1808;53.596;9.972;2023-04-24T07:18:10;5.07;;;3.03;;
3587;SDS011;1808;53.596;9.972;2023-04-24T07:20:36;5.22;;;3.13;;
3587;SDS011;1808;53.596;9.972;2023-04-24T07:23:03;6.00;;;3.95;;
3587;SDS011;1808;53.596;9.972;2023-04-24T07:25:30;6.22;;;3.88;;
3587;SDS011;1808;53.596;9.972;2023-04-24T07:27:56;6.35;;;4.15;;
3587;SDS011;1808;53.596;9.972;2023-04-24T07:30:23;5.55;;;4.32;;
3587;SDS011;1808;53.596;9.972;2023-04-24T07:32:49;5.68;;;3.78;;
3587;SDS011;1808;53.596;9.972;2023-04-24T07:35:15;6.32;;;4.10;;
3587;SDS011;1808;53.596;9.972;2023-04-24T07:37:42;5.32;;;3.83;;
3587;SDS011;1808;53.596;9.972;2023-04-24T07:40:12;5.82;;;4.72;;
3587;SDS011;1808;53.596;9.972;2023-04-24T07:42:38;5.40;;;4.43;;
3587;SDS011;1808;53.596;9.972;2023-04-24T07:45:05;7.75;;;5.40;;
3587;SDS011;1808;53.596;9.972;2023-04-24T07:47:31;7.30;;;4.30;;
3587;SDS011;1808;53.596;9.972;2023-04-24T07:49:58;6.60;;;5.07;;
3587;SDS011;1808;53.596;9.972;2023-04-24T07:52:24;6.75;;;4.75;;
3587;SDS011;1808;53.596;9.972;2023-04-24T07:54:50;5.57;;;4.45;;
3587;SDS011;1808;53.596;9.972;2023-04-24T07:57:24;7.10;;;4.93;;
3587;SDS011;1808;53.596;9.972;2023-04-24T07:59:50;5.90;;;4.93;;
3587;SDS011;1808;53.596;9.972;2023-04-24T08:02:16;8.65;;;5.05;;
3587;SDS011;1808;53.596;9.972;2023-04-24T08:04:43;7.15;;;5.30;;
3587;SDS011;1808;53.596;9.972;2023-04-24T08:07:09;9.10;;;6.10;;
3587;SDS011;1808;53.596;9.972;2023-04-24T08:09:37;5.68;;;5.07;;
3587;SDS011;1808;53.596;9.972;2023-04-24T08:12:04;6.95;;;5.30;;
3587;SDS011;1808;53.596;9.972;2023-04-24T08:14:31;7.82;;;4.75;;
3587;SDS011;1808;53.596;9.972;2023-04-24T08:16:57;6.82;;;5.82;;
3587;SDS011;1808;53.596;9.972;2023-04-24T08:19:25;7.43;;;5.50;;
3587;SDS011;1808;53.596;9.972;2023-04-24T08:21:51;6.60;;;5.60;;
3587;SDS011;1808;53.596;9.972;2023-04-24T08:24:17;9.93;;;6.78;;
3587;SDS011;1808;53.596;9.972;2023-04-24T08:26:44;7.28;;;5.60;;
3587;SDS011;1808;53.596;9.972;2023-04-24T08:29:10;8.32;;;6.95;;
3587;SDS011;1808;53.596;9.972;2023-04-24T08:31:38;7.60;;;5.70;;
3587;SDS011;1808;53.596;9.972;2023-04-24T08:34:04;9.18;;;6.70;;
3587;SDS011;1808;53.596;9.972;2023-04-24T08:36:30;8.88;;;6.18;;
3587;SDS011;1808;53.596;9.972;2023-04-24T08:38:57;8.05;;;5.97;;
3587;SDS011;1808;53.596;9.972;2023-04-24T08:41:23;7.35;;;5.97;;
3587;SDS011;1808;53.596;9.972;2023-04-24T08:43:51;9.80;;;6.28;;
3587;SDS011;1808;53.596;9.972;2023-04-24T08:46:17;7.13;;;4.75;;
3587;SDS011;1808;53.596;9.972;2023-04-24T08:48:45;8.05;;;5.80;;
3587;SDS011;1808;53.596;9.972;2023-04-24T08:51:11;8.73;;;5.65;;
3587;SDS011;1808;53.596;9.972;2023-04-24T08:53:38;9.82;;;6.45;;
3587;SDS011;1808;53.596;9.972;2023-04-24T08:56:04;8.43;;;6.03;;
3587;SDS011;1808;53.596;9.972;2023-04-24T08:58:31;9.07;;;6.28;;
3587;SDS011;1808;53.596;9.972;2023-04-24T09:00:57;7.95;;;5.63;;
3587;SDS011;1808;53.596;9.972;2023-04-24T09:03:24;9.20;;;6.95;;
3587;SDS011;1808;53.596;9.972;2023-04-24T09:05:53;11.25;;;6.97;;
3587;SDS011;1808;53.596;9.972;2023-04-24T09:08:20;10.25;;;6.93;;
3587;SDS011;1808;53.596;9.972;2023-04-24T09:10:49;9.50;;;7.68;;
3587;SDS011;1808;53.596;9.972;2023-04-24T09:13:15;9.77;;;7.22;;
3587;SDS011;1808;53.596;9.972;2023-04-24T09:15:42;9.77;;;7.13;;
3587;SDS011;1808;53.596;9.972;2023-04-24T09:18:08;9.50;;;7.47;;
3587;SDS011;1808;53.596;9.972;2023-04-24T09:20:34;8.80;;;6.78;;
3587;SDS011;1808;53.596;9.972;2023-04-24T09:23:02;11.00;;;7.55;;
3587;SDS011;1808;53.596;9.972;2023-04-24T09:25:30;10.13;;;6.80;;
3587;SDS011;1808;53.596;9.972;2023-04-24T09:27:59;9.25;;;6.80;;
3587;SDS011;1808;53.596;9.972;2023-04-24T09:30:26;9.07;;;6.55;;
3587;SDS011;1808;53.596;9.972;2023-04-24T09:32:58;10.00;;;6.85;;
3587;SDS011;1808;53.596;9.972;2023-04-24T09:35:35;8.98;;;7.25;;
3587;SDS011;1808;53.596;9.972;2023-04-24T09:38:02;8.40;;;6.15;;
3587;SDS011;1808;53.596;9.972;2023-04-24T09:40:28;8.32;;;5.68;;
3587;SDS011;1808;53.596;9.972;2023-04-24T09:42:56;8.10;;;6.43;;
3587;SDS011;1808;53.596;9.972;2023-04-24T09:45:22;8.02;;;6.10;;
3587;SDS011;1808;53.596;9.972;2023-04-24T09:47:53;8.55;;;5.90;;
3587;SDS011;1808;53.596;9.972;2023-04-24T09:50:20;12.60;;;6.97;;
3587;SDS011;1808;53.596;9.972;2023-04-24T09:52:47;9.52;;;7.47;;
3587;SDS011;1808;53.596;9.972;2023-04-24T09:55:22;10.25;;;6.40;;
3587;SDS011;1808;53.596;9.972;2023-04-24T09:57:52;10.20;;;7.30;;
3587;SDS011;1808;53.596;9.972;2023-04-24T10:00:21;10.05;;;8.50;;
3587;SDS011;1808;53.596;9.972;2023-04-24T10:02:51;9.10;;;6.53;;
3587;SDS011;1808;53.596;9.972;2023-04-24T10:05:18;10.48;;;7.50;;
3587;SDS011;1808;53.596;9.972;2023-04-24T10:07:44;11.43;;;8.35;;
3587;SDS011;1808;53.596;9.972;2023-04-24T10:10:11;15.13;;;8.70;;
3587;SDS011;1808;53.596;9.972;2023-04-24T10:12:38;10.05;;;7.88;;
3587;SDS011;1808;53.596;9.972;2023-04-24T10:15:05;11.13;;;8.32;;
3587;SDS011;1808;53.596;9.972;2023-04-24T10:17:31;13.30;;;9.40;;
3587;SDS011;1808;53.596;9.972;2023-04-24T10:19:58;11.98;;;8.73;;
3587;SDS011;1808;53.596;9.972;2023-04-24T10:22:25;14.35;;;8.90;;
3587;SDS011;1808;53.596;9.972;2023-04-24T10:24:54;12.65;;;9.30;;
3587;SDS011;1808;53.596;9.972;2023-04-24T10:27:21;12.48;;;9.02;;
3587;SDS011;1808;53.596;9.972;2023-04-24T10:29:48;11.57;;;8.45;;
3587;SDS011;1808;53.596;9.972;2023-04-24T10:32:16;15.18;;;10.25;;
3587;SDS011;1808;53.596;9.972;2023-04-24T10:34:42;12.65;;;9.93;;
3587;SDS011;1808;53.596;9.972;2023-04-24T10:37:08;13.55;;;9.48;;
3587;SDS011;1808;53.596;9.972;2023-04-24T10:39:34;13.35;;;9.27;;
3587;SDS011;1808;53.596;9.972;2023-04-24T10:42:02;16.23;;;12.05;;
3587;SDS011;1808;53.596;9.972;2023-04-24T10:44:39;14.75;;;10.63;;
3587;SDS011;1808;53.596;9.972;2023-04-24T10:47:07;16.58;;;10.25;;
3587;SDS011;1808;53.596;9.972;2023-04-24T10:49:38;15.43;;;11.32;;
3587;SDS011;1808;53.596;9.972;2023-04-24T10:52:05;17.25;;;11.77;;
3587;SDS011;1808;53.596;9.972;2023-04-24T10:54:34;15.70;;;11.65;;
3587;SDS011;1808;53.596;9.972;2023-04-24T10:59:45;14.00;;;9.45;;
3587;SDS011;1808;53.596;9.972;2023-04-24T11:02:15;13.10;;;9.07;;
3587;SDS011;1808;53.596;9.972;2023-04-24T11:04:41;14.00;;;9.38;;
3587;SDS011;1808;53.596;9.972;2023-04-24T11:07:08;15.20;;;9.88;;
3587;SDS011;1808;53.596;9.972;2023-04-24T11:09:35;13.95;;;11.30;;
3587;SDS011;1808;53.596;9.972;2023-04-24T11:12:05;13.35;;;9.85;;
3587;SDS011;1808;53.596;9.972;2023-04-24T11:17:26;14.38;;;9.55;;
3587;SDS011;1808;53.596;9.972;2023-04-24T11:19:53;13.00;;;9.27;;
3587;SDS011;1808;53.596;9.972;2023-04-24T11:22:26;13.75;;;9.65;;
3587;SDS011;1808;53.596;9.972;2023-04-24T11:24:54;13.50;;;9.40;;
3587;SDS011;1808;53.596;9.972;2023-04-24T11:27:20;14.75;;;10.18;;
3587;SDS011;1808;53.596;9.972;2023-04-24T11:29:47;13.23;;;10.45;;
3587;SDS011;1808;53.596;9.972;2023-04-24T11:32:15;11.55;;;8.52;;
3587;SDS011;1808;53.596;9.972;2023-04-24T11:34:46;11.93;;;8.43;;
3587;SDS011;1808;53.596;9.972;2023-04-24T11:37:12;12.98;;;8.32;;
3587;SDS011;1808;53.596;9.972;2023-04-24T11:39:39;13.93;;;8.27;;
3587;SDS011;1808;53.596;9.972;2023-04-24T11:42:06;11.48;;;9.00;;
3587;SDS011;1808;53.596;9.972;2023-04-24T11:44:32;12.40;;;9.45;;
3587;SDS011;1808;53.596;9.972;2023-04-24T11:46:59;12.50;;;8.95;;
3587;SDS011;1808;53.596;9.972;2023-04-24T11:49:25;14.10;;;8.98;;
3587;SDS011;1808;53.596;9.972;2023-04-24T11:51:55;10.52;;;8.10;;
3587;SDS011;1808;53.596;9.972;2023-04-24T11:54:22;13.55;;;9.30;;
3587;SDS011;1808;53.596;9.972;2023-04-24T11:56:48;13.95;;;9.38;;
3587;SDS011;1808;53.596;9.972;2023-04-24T11:59:15;12.05;;;8.88;;
3587;SDS011;1808;53.596;9.972;2023-04-24T12:01:44;12.45;;;8.85;;
3587;SDS011;1808;53.596;9.972;2023-04-24T12:04:11;13.23;;;8.27;;
3587;SDS011;1808;53.596;9.972;2023-04-24T12:06:38;11.40;;;7.93;;
3587;SDS011;1808;53.596;9.972;2023-04-24T12:09:05;11.38;;;7.90;;
3587;SDS011;1808;53.596;9.972;2023-04-24T12:11:33;11.73;;;8.45;;
3587;SDS011;1808;53.596;9.972;2023-04-24T12:14:09;9.93;;;6.63;;
3587;SDS011;1808;53.596;9.972;2023-04-24T12:16:35;8.82;;;6.80;;
3587;SDS011;1808;53.596;9.972;2023-04-24T12:19:01;9.15;;;6.80;;
3587;SDS011;1808;53.596;9.972;2023-04-24T12:21:27;9.18;;;7.45;;
3587;SDS011;1808;53.596;9.972;2023-04-24T12:23:55;10.63;;;7.05;;
3587;SDS011;1808;53.596;9.972;2023-04-24T12:26:22;10.65;;;7.50;;
3587;SDS011;1808;53.596;9.972;2023-04-24T12:28:49;10.73;;;6.82;;
3587;SDS011;1808;53.596;9.972;2023-04-24T12:31:15;10.80;;;6.45;;
3587;SDS011;1808;53.596;9.972;2023-04-24T12:33:42;11.50;;;6.78;;
3587;SDS011;1808;53.596;9.972;2023-04-24T12:36:09;9.98;;;6.47;;
3587;SDS011;1808;53.596;9.972;2023-04-24T12:38:37;10.15;;;7.13;;
3587;SDS011;1808;53.596;9.972;2023-04-24T12:41:06;9.32;;;6.95;;
3587;SDS011;1808;53.596;9.972;2023-04-24T12:43:34;11.70;;;7.38;;
3587;SDS011;1808;53.596;9.972;2023-04-24T12:46:01;11.90;;;8.75;;
3587;SDS011;1808;53.596;9.972;2023-04-24T12:48:28;13.23;;;8.52;;
3587;SDS011;1808;53.596;9.972;2023-04-24T12:50:54;10.05;;;8.45;;
3587;SDS011;1808;53.596;9.972;2023-04-24T12:53:21;9.00;;;5.68;;
3587;SDS011;1808;53.596;9.972;2023-04-24T12:55:47;11.32;;;7.05;;
3587;SDS011;1808;53.596;9.972;2023-04-24T12:58:17;10.00;;;8.80;;
3587;SDS011;1808;53.596;9.972;2023-04-24T13:00:45;9.07;;;6.10;;
3587;SDS011;1808;53.596;9.972;2023-04-24T13:03:11;13.27;;;8.02;;
3587;SDS011;1808;53.596;9.972;2023-04-24T13:05:38;9.60;;;7.72;;
3587;SDS011;1808;53.596;9.972;2023-04-24T13:08:04;10.93;;;7.35;;
3587;SDS011;1808;53.596;9.972;2023-04-24T13:10:30;9.65;;;6.72;;
3587;SDS011;1808;53.596;9.972;2023-04-24T13:12:56;9.85;;;6.70;;
3587;SDS011;1808;53.596;9.972;2023-04-24T13:15:23;8.60;;;6.90;;
3587;SDS011;1808;53.596;9.972;2023-04-24T13:17:51;8.27;;;6.38;;
3587;SDS011;1808;53.596;9.972;2023-04-24T13:20:17;7.93;;;5.80;;
3587;SDS011;1808;53.596;9.972;2023-04-24T13:22:43;8.68;;;6.45;;
3587;SDS011;1808;53.596;9.972;2023-04-24T13:25:09;8.15;;;6.40;;
3587;SDS011;1808;53.596;9.972;2023-04-24T13:30:03;8.30;;;6.55;;
3587;SDS011;1808;53.596;9.972;2023-04-24T13:32:29;8.65;;;5.93;;
3587;SDS011;1808;53.596;9.972;2023-04-24T13:34:57;8.65;;;6.55;;
3587;SDS011;1808;53.596;9.972;2023-04-24T13:37:23;12.95;;;7.10;;
3587;SDS011;1808;53.596;9.972;2023-04-24T13:39:49;8.60;;;6.97;;
3587;SDS011;1808;53.596;9.972;2023-04-24T13:42:15;9.02;;;6.25;;
3587;SDS011;1808;53.596;9.972;2023-04-24T13:44:43;10.13;;;7.35;;
3587;SDS011;1808;53.596;9.972;2023-04-24T13:47:09;6.85;;;6.00;;
3587;SDS011;1808;53.596;9.972;2023-04-24T13:49:35;8.43;;;6.50;;
3587;SDS011;1808;53.596;9.972;2023-04-24T13:52:03;8.02;;;6.35;;
3587;SDS011;1808;53.596;9.972;2023-04-24T13:54:29;9.13;;;6.13;;
3587;SDS011;1808;53.596;9.972;2023-04-24T13:56:56;7.60;;;5.78;;
3587;SDS011;1808;53.596;9.972;2023-04-24T13:59:23;9.90;;;6.22;;
3587;SDS011;1808;53.596;9.972;2023-04-24T14:01:50;7.88;;;6.22;;
3587;SDS011;1808;53.596;9.972;2023-04-24T14:04:16;7.40;;;6.13;;
3587;SDS011;1808;53.596;9.972;2023-04-24T14:06:43;7.72;;;5.70;;
3587;SDS011;1808;53.596;9.972;2023-04-24T14:09:10;9.45;;;5.93;;
3587;SDS011;1808;53.596;9.972;2023-04-24T14:11:37;7.35;;;5.70;;
3587;SDS011;1808;53.596;9.972;2023-04-24T14:14:05;8.75;;;5.47;;
3587;SDS011;1808;53.596;9.972;2023-04-24T14:16:31;8.50;;;5.30;;
3587;SDS011;1808;53.596;9.972;2023-04-24T14:18:57;6.07;;;5.00;;
3587;SDS011;1808;53.596;9.972;2023-04-24T14:21:24;7.05;;;6.35;;
3587;SDS011;1808;53.596;9.972;2023-04-24T14:23:50;7.20;;;5.53;;
3587;SDS011;1808;53.596;9.972;2023-04-24T14:26:18;6.75;;;6.05;;
3587;SDS011;1808;53.596;9.972;2023-04-24T14:28:45;6.50;;;5.28;;
3587;SDS011;1808;53.596;9.972;2023-04-24T14:31:11;7.20;;;5.10;;
3587;SDS011;1808;53.596;9.972;2023-04-24T14:33:38;8.70;;;7.80;;
3587;SDS011;1808;53.596;9.972;2023-04-24T14:36:04;9.30;;;6.35;;
3587;SDS011;1808;53.596;9.972;2023-04-24T14:38:31;9.98;;;6.85;;
3587;SDS011;1808;53.596;9.972;2023-04-24T14:40:57;10.15;;;7.32;;
3587;SDS011;1808;53.596;9.972;2023-04-24T14:43:25;12.40;;;9.00;;
3587;SDS011;1808;53.596;9.972;2023-04-24T14:45:51;13.52;;;9.85;;
3587;SDS011;1808;53.596;9.972;2023-04-24T14:48:18;14.05;;;9.68;;
3587;SDS011;1808;53.596;9.972;2023-04-24T14:50:44;14.77;;;9.70;;
3587;SDS011;1808;53.596;9.972;2023-04-24T14:53:10;16.52;;;12.13;;
3587;SDS011;1808;53.596;9.972;2023-04-24T14:55:36;14.40;;;9.60;;
3587;SDS011;1808;53.596;9.972;2023-04-24T14:58:03;16.40;;;10.38;;
3587;SDS011;1808;53.596;9.972;2023-04-24T15:00:31;17.15;;;10.43;;
3587;SDS011;1808;53.596;9.972;2023-04-24T15:02:57;16.83;;;11.77;;
3587;SDS011;1808;53.596;9.972;2023-04-24T15:05:24;16.45;;;12.10;;
3587;SDS011;1808;53.596;9.972;2023-04-24T15:07:50;10.07;;;6.97;;
3587;SDS011;1808;53.596;9.972;2023-04-24T15:10:16;11.52;;;6.78;;
3587;SDS011;1808;53.596;9.972;2023-04-24T15:12:43;11.55;;;7.00;;
3587;SDS011;1808;53.596;9.972;2023-04-24T15:15:09;13.02;;;8.38;;